Airfield :
LOGIN :

Register | Disclaimer

   EN    FR    IT 

 










Legend :    VFR   Marginal VFR   IFR   Intensive IFR   Very Intensive IFR
Visi :
Ceiling :
>= 8 km
>= 3000ft
5 to 8 km
1000 to 3000 ft
1500m to 5 km
500 to 1000 ft
800 to 1500m
200 to 500 ft
< 800m
< 200 ft
Symbols :   Thunderstorms  Fog  Heavy snow  Heavy precipitations  Wind > 20 kt
SIGMETs :     Misc.  Thunderstorms  Icing  Turbulence  Mountain Waves  Volcanic Ashes






- Airport Elevation : 308 ft
- IATA code : MHG


EDFM - Mannheim-City

CURRENT METAR :
  • 192350Z AUTO 28007KT 250V310 9999 // BKN026/// OVC048/// 07/03 Q1013

EXPIRED METARs :
  • 192320Z AUTO 28008KT 9999 // BKN029/// 07/03 Q1013
  • 192250Z AUTO 28008KT 9999 // FEW026/// OVC035/// 07/03 Q1013
  • 192220Z AUTO 29007KT 9999 // OVC030/// 07/03 Q1013
  • 192150Z AUTO 28011KT 250V310 9999 // FEW038/// BKN043/// BKN051/// 07/03 Q1012
  • 192120Z AUTO 26009KT 230V300 9999 // BKN036/// 07/03 Q1012
  • 192050Z AUTO 26005KT 9999 // BKN039/// BKN055/// 07/04 Q1012
  • 192020Z 26004KT 9999 FEW041 07/04 Q1011
  • 191950Z 29006G16KT 250V320 9999 BKN031 08/04 Q1011
  • 191920Z 30007KT 9999 FEW037 08/04 Q1011

Expired Forecast.



MET'MAP, your aeronautical weather chart ! - Copyright ORBIFLY December 2007 - Disclaimer

ORBIFLY MET'MAP TEAM :

Programming & Development : Alexandra Zaïnal
Original concept : Baudouin d'Aumeries
Technical & hardware support : Manuel Goepfert
Assistance : Marc-Olivier Méhu




SOURCES & CREDITS :

   NOAA